sensor_id;sensor_type;location;lat;lon;timestamp;temperature;humidity
75457;SHT31;64036;48.266;14.192;2023-08-21T00:00:05;22.01;70.69
75457;SHT31;64036;48.266;14.192;2023-08-21T00:02:32;22.00;70.77
75457;SHT31;64036;48.266;14.192;2023-08-21T00:04:58;22.00;70.78
75457;SHT31;64036;48.266;14.192;2023-08-21T00:07:23;21.97;70.92
75457;SHT31;64036;48.266;14.192;2023-08-21T00:09:49;21.91;71.01
75457;SHT31;64036;48.266;14.192;2023-08-21T00:12:15;21.88;71.01
75457;SHT31;64036;48.266;14.192;2023-08-21T00:14:41;21.88;70.98
75457;SHT31;64036;48.266;14.192;2023-08-21T00:17:06;21.87;71.02
75457;SHT31;64036;48.266;14.192;2023-08-21T00:19:33;21.84;71.05
75457;SHT31;64036;48.266;14.192;2023-08-21T00:21:59;21.81;71.20
75457;SHT31;64036;48.266;14.192;2023-08-21T00:24:25;21.74;71.24
75457;SHT31;64036;48.266;14.192;2023-08-21T00:26:51;21.69;71.28
75457;SHT31;64036;48.266;14.192;2023-08-21T00:29:17;21.68;71.40
75457;SHT31;64036;48.266;14.192;2023-08-21T00:31:42;21.64;71.49
75457;SHT31;64036;48.266;14.192;2023-08-21T00:34:08;21.60;71.47
75457;SHT31;64036;48.266;14.192;2023-08-21T00:36:34;21.70;71.44
75457;SHT31;64036;48.266;14.192;2023-08-21T00:39:00;21.69;71.11
75457;SHT31;64036;48.266;14.192;2023-08-21T00:41:26;21.52;71.46
75457;SHT31;64036;48.266;14.192;2023-08-21T00:43:52;21.44;71.50
75457;SHT31;64036;48.266;14.192;2023-08-21T00:46:17;21.39;71.89
75457;SHT31;64036;48.266;14.192;2023-08-21T00:48:44;21.35;72.22
75457;SHT31;64036;48.266;14.192;2023-08-21T00:51:10;21.33;72.43
75457;SHT31;64036;48.266;14.192;2023-08-21T00:53:37;21.33;72.51
75457;SHT31;64036;48.266;14.192;2023-08-21T00:56:03;21.33;72.56
75457;SHT31;64036;48.266;14.192;2023-08-21T00:58:29;21.32;72.44
75457;SHT31;64036;48.266;14.192;2023-08-21T01:00:55;21.30;72.53
75457;SHT31;64036;48.266;14.192;2023-08-21T01:03:21;21.27;72.67
75457;SHT31;64036;48.266;14.192;2023-08-21T01:05:47;21.20;72.86
75457;SHT31;64036;48.266;14.192;2023-08-21T01:16:37;21.19;73.52
75457;SHT31;64036;48.266;14.192;2023-08-21T01:19:03;21.38;73.03
75457;SHT31;64036;48.266;14.192;2023-08-21T01:21:37;21.43;72.83
75457;SHT31;64036;48.266;14.192;2023-08-21T01:24:03;21.44;72.87
75457;SHT31;64036;48.266;14.192;2023-08-21T01:26:29;21.45;72.86
75457;SHT31;64036;48.266;14.192;2023-08-21T01:28:55;21.46;72.83
75457;SHT31;64036;48.266;14.192;2023-08-21T01:31:24;21.46;72.83
75457;SHT31;64036;48.266;14.192;2023-08-21T01:33:58;21.44;72.97
75457;SHT31;64036;48.266;14.192;2023-08-21T01:36:28;21.40;73.02
75457;SHT31;64036;48.266;14.192;2023-08-21T01:38:54;21.34;73.23
75457;SHT31;64036;48.266;14.192;2023-08-21T01:41:22;21.29;73.51
75457;SHT31;64036;48.266;14.192;2023-08-21T01:43:50;21.23;73.56
75457;SHT31;64036;48.266;14.192;2023-08-21T01:46:15;21.15;73.63
75457;SHT31;64036;48.266;14.192;2023-08-21T01:48:41;20.91;74.03
75457;SHT31;64036;48.266;14.192;2023-08-21T01:51:06;20.76;74.19
75457;SHT31;64036;48.266;14.192;2023-08-21T01:53:32;20.64;74.29
75457;SHT31;64036;48.266;14.192;2023-08-21T01:55:58;20.53;74.53
75457;SHT31;64036;48.266;14.192;2023-08-21T01:58:24;20.50;74.72
75457;SHT31;64036;48.266;14.192;2023-08-21T02:00:49;20.44;74.74
75457;SHT31;64036;48.266;14.192;2023-08-21T02:03:15;20.39;74.76
75457;SHT31;64036;48.266;14.192;2023-08-21T02:05:40;20.37;74.92
75457;SHT31;64036;48.266;14.192;2023-08-21T02:08:08;20.35;74.98
75457;SHT31;64036;48.266;14.192;2023-08-21T02:10:37;20.34;75.07
75457;SHT31;64036;48.266;14.192;2023-08-21T02:13:03;20.33;75.17
75457;SHT31;64036;48.266;14.192;2023-08-21T02:15:30;20.32;75.20
75457;SHT31;64036;48.266;14.192;2023-08-21T02:17:56;20.30;75.29
75457;SHT31;64036;48.266;14.192;2023-08-21T02:20:22;20.30;75.35
75457;SHT31;64036;48.266;14.192;2023-08-21T02:22:48;20.29;75.22
75457;SHT31;64036;48.266;14.192;2023-08-21T02:25:13;20.28;75.20
75457;SHT31;64036;48.266;14.192;2023-08-21T02:27:39;20.26;75.18
75457;SHT31;64036;48.266;14.192;2023-08-21T02:30:05;20.22;75.19
75457;SHT31;64036;48.266;14.192;2023-08-21T02:32:32;20.19;75.37
75457;SHT31;64036;48.266;14.192;2023-08-21T02:34:58;20.18;75.57
75457;SHT31;64036;48.266;14.192;2023-08-21T02:37:23;20.18;75.66
75457;SHT31;64036;48.266;14.192;2023-08-21T02:39:49;20.15;75.81
75457;SHT31;64036;48.266;14.192;2023-08-21T02:42:14;20.13;75.90
75457;SHT31;64036;48.266;14.192;2023-08-21T02:44:40;20.12;75.91
75457;SHT31;64036;48.266;14.192;2023-08-21T02:47:06;20.11;76.04
75457;SHT31;64036;48.266;14.192;2023-08-21T02:49:31;20.09;76.10
75457;SHT31;64036;48.266;14.192;2023-08-21T02:51:57;20.05;75.99
75457;SHT31;64036;48.266;14.192;2023-08-21T02:54:23;19.99;76.10
75457;SHT31;64036;48.266;14.192;2023-08-21T02:56:48;19.94;76.18
75457;SHT31;64036;48.266;14.192;2023-08-21T02:59:14;19.93;76.22
75457;SHT31;64036;48.266;14.192;2023-08-21T03:01:40;19.92;76.36
75457;SHT31;64036;48.266;14.192;2023-08-21T03:04:05;19.91;76.41
75457;SHT31;64036;48.266;14.192;2023-08-21T03:06:31;19.88;76.51
75457;SHT31;64036;48.266;14.192;2023-08-21T03:08:56;19.87;76.67
75457;SHT31;64036;48.266;14.192;2023-08-21T03:11:22;19.85;76.77
75457;SHT31;64036;48.266;14.192;2023-08-21T03:13:48;19.83;76.60
75457;SHT31;64036;48.266;14.192;2023-08-21T03:16:13;19.83;76.73
75457;SHT31;64036;48.266;14.192;2023-08-21T03:18:58;19.81;76.84
75457;SHT31;64036;48.266;14.192;2023-08-21T03:21:26;19.79;76.85
75457;SHT31;64036;48.266;14.192;2023-08-21T03:23:54;19.78;76.82
75457;SHT31;64036;48.266;14.192;2023-08-21T03:26:23;19.75;76.69
75457;SHT31;64036;48.266;14.192;2023-08-21T03:28:49;19.72;76.68
75457;SHT31;64036;48.266;14.192;2023-08-21T03:31:15;19.70;76.84
75457;SHT31;64036;48.266;14.192;2023-08-21T03:33:40;19.65;76.77
75457;SHT31;64036;48.266;14.192;2023-08-21T03:36:06;19.58;76.49
75457;SHT31;64036;48.266;14.192;2023-08-21T03:38:32;19.54;76.57
75457;SHT31;64036;48.266;14.192;2023-08-21T03:40:58;19.50;76.80
75457;SHT31;64036;48.266;14.192;2023-08-21T03:43:25;19.43;77.08
75457;SHT31;64036;48.266;14.192;2023-08-21T03:45:51;19.41;77.36
75457;SHT31;64036;48.266;14.192;2023-08-21T03:48:16;19.38;77.61
75457;SHT31;64036;48.266;14.192;2023-08-21T03:50:42;19.37;77.68
75457;SHT31;64036;48.266;14.192;2023-08-21T03:53:08;19.37;77.58
75457;SHT31;64036;48.266;14.192;2023-08-21T03:55:33;19.37;77.50
75457;SHT31;64036;48.266;14.192;2023-08-21T03:57:59;19.37;77.52
75457;SHT31;64036;48.266;14.192;2023-08-21T04:00:26;19.37;77.48
75457;SHT31;64036;48.266;14.192;2023-08-21T04:02:51;19.37;77.61
75457;SHT31;64036;48.266;14.192;2023-08-21T04:05:17;19.58;77.56
75457;SHT31;64036;48.266;14.192;2023-08-21T04:07:43;19.73;77.16
75457;SHT31;64036;48.266;14.192;2023-08-21T04:10:08;19.81;76.91
75457;SHT31;64036;48.266;14.192;2023-08-21T04:12:34;19.87;76.80
75457;SHT31;64036;48.266;14.192;2023-08-21T04:15:00;19.90;76.56
75457;SHT31;64036;48.266;14.192;2023-08-21T04:17:25;19.95;76.50
75457;SHT31;64036;48.266;14.192;2023-08-21T04:19:51;20.00;76.23
75457;SHT31;64036;48.266;14.192;2023-08-21T04:22:17;20.08;76.07
75457;SHT31;64036;48.266;14.192;2023-08-21T04:24:43;20.18;76.11
75457;SHT31;64036;48.266;14.192;2023-08-21T04:27:08;20.30;76.09
75457;SHT31;64036;48.266;14.192;2023-08-21T04:29:38;20.44;75.85
75457;SHT31;64036;48.266;14.192;2023-08-21T04:32:05;20.50;75.57
75457;SHT31;64036;48.266;14.192;2023-08-21T04:34:34;20.55;75.40
75457;SHT31;64036;48.266;14.192;2023-08-21T04:37:00;20.64;75.01
75457;SHT31;64036;48.266;14.192;2023-08-21T04:39:26;20.76;74.69
75457;SHT31;64036;48.266;14.192;2023-08-21T04:41:52;20.84;74.84
75457;SHT31;64036;48.266;14.192;2023-08-21T04:44:18;20.90;74.92
75457;SHT31;64036;48.266;14.192;2023-08-21T04:46:47;20.96;74.81
75457;SHT31;64036;48.266;14.192;2023-08-21T04:49:15;21.04;74.67
75457;SHT31;64036;48.266;14.192;2023-08-21T04:51:41;21.20;74.49
75457;SHT31;64036;48.266;14.192;2023-08-21T04:54:07;21.68;74.09
75457;SHT31;64036;48.266;14.192;2023-08-21T04:56:33;22.21;73.46
75457;SHT31;64036;48.266;14.192;2023-08-21T04:58:58;22.72;72.92
75457;SHT31;64036;48.266;14.192;2023-08-21T05:01:24;23.39;71.98
75457;SHT31;64036;48.266;14.192;2023-08-21T05:03:50;24.02;70.98
75457;SHT31;64036;48.266;14.192;2023-08-21T05:06:16;24.53;69.96
75457;SHT31;64036;48.266;14.192;2023-08-21T05:08:42;25.00;68.92
75457;SHT31;64036;48.266;14.192;2023-08-21T05:11:07;25.51;67.99
75457;SHT31;64036;48.266;14.192;2023-08-21T05:13:33;26.02;67.09
75457;SHT31;64036;48.266;14.192;2023-08-21T05:15:59;26.61;65.91
75457;SHT31;64036;48.266;14.192;2023-08-21T05:18:25;27.20;64.47
75457;SHT31;64036;48.266;14.192;2023-08-21T05:20:54;27.70;63.23
75457;SHT31;64036;48.266;14.192;2023-08-21T05:23:21;28.12;62.16
75457;SHT31;64036;48.266;14.192;2023-08-21T05:25:48;28.59;61.15
75457;SHT31;64036;48.266;14.192;2023-08-21T05:28:14;29.04;59.81
75457;SHT31;64036;48.266;14.192;2023-08-21T05:30:40;29.40;58.61
75457;SHT31;64036;48.266;14.192;2023-08-21T05:33:06;29.68;58.07
75457;SHT31;64036;48.266;14.192;2023-08-21T05:35:38;30.24;56.59
75457;SHT31;64036;48.266;14.192;2023-08-21T05:38:03;30.78;55.16
75457;SHT31;64036;48.266;14.192;2023-08-21T05:40:29;31.24;54.07
75457;SHT31;64036;48.266;14.192;2023-08-21T05:42:55;31.77;52.76
75457;SHT31;64036;48.266;14.192;2023-08-21T05:45:21;32.25;52.27
75457;SHT31;64036;48.266;14.192;2023-08-21T05:47:46;32.72;50.89
75457;SHT31;64036;48.266;14.192;2023-08-21T05:50:12;33.16;49.98
75457;SHT31;64036;48.266;14.192;2023-08-21T05:52:38;33.57;49.03
75457;SHT31;64036;48.266;14.192;2023-08-21T05:55:04;34.01;48.39
75457;SHT31;64036;48.266;14.192;2023-08-21T05:57:30;34.44;47.28
75457;SHT31;64036;48.266;14.192;2023-08-21T05:59:59;34.75;46.83
75457;SHT31;64036;48.266;14.192;2023-08-21T06:02:25;35.10;46.07
75457;SHT31;64036;48.266;14.192;2023-08-21T06:04:50;35.52;45.15
75457;SHT31;64036;48.266;14.192;2023-08-21T06:07:16;35.77;44.30
75457;SHT31;64036;48.266;14.192;2023-08-21T06:09:41;35.77;43.74
75457;SHT31;64036;48.266;14.192;2023-08-21T06:12:07;35.82;43.31
75457;SHT31;64036;48.266;14.192;2023-08-21T06:14:34;35.84;42.88
75457;SHT31;64036;48.266;14.192;2023-08-21T06:17:01;36.01;42.18
75457;SHT31;64036;48.266;14.192;2023-08-21T06:19:29;36.53;41.80
75457;SHT31;64036;48.266;14.192;2023-08-21T06:21:55;37.03;41.05
75457;SHT31;64036;48.266;14.192;2023-08-21T06:24:21;37.66;40.04
75457;SHT31;64036;48.266;14.192;2023-08-21T06:26:48;38.19;39.27
75457;SHT31;64036;48.266;14.192;2023-08-21T06:29:13;38.83;38.50
75457;SHT31;64036;48.266;14.192;2023-08-21T06:31:39;39.15;38.26
75457;SHT31;64036;48.266;14.192;2023-08-21T06:34:05;39.51;37.29
75457;SHT31;64036;48.266;14.192;2023-08-21T06:36:31;40.00;36.62
75457;SHT31;64036;48.266;14.192;2023-08-21T06:38:56;40.59;36.20
75457;SHT31;64036;48.266;14.192;2023-08-21T06:41:22;41.19;35.18
75457;SHT31;64036;48.266;14.192;2023-08-21T06:43:49;41.70;34.41
75457;SHT31;64036;48.266;14.192;2023-08-21T06:46:15;42.14;33.78
75457;SHT31;64036;48.266;14.192;2023-08-21T06:48:40;42.32;33.58
75457;SHT31;64036;48.266;14.192;2023-08-21T06:51:06;42.56;33.34
75457;SHT31;64036;48.266;14.192;2023-08-21T06:53:32;42.75;32.69
75457;SHT31;64036;48.266;14.192;2023-08-21T06:55:57;42.91;32.08
75457;SHT31;64036;48.266;14.192;2023-08-21T06:58:23;43.25;32.17
75457;SHT31;64036;48.266;14.192;2023-08-21T07:00:49;43.74;31.49
75457;SHT31;64036;48.266;14.192;2023-08-21T07:03:14;44.16;31.24
75457;SHT31;64036;48.266;14.192;2023-08-21T07:05:40;44.56;31.07
75457;SHT31;64036;48.266;14.192;2023-08-21T07:08:05;44.69;30.80
75457;SHT31;64036;48.266;14.192;2023-08-21T07:10:37;44.80;30.76
75457;SHT31;64036;48.266;14.192;2023-08-21T07:13:03;44.99;30.31
75457;SHT31;64036;48.266;14.192;2023-08-21T07:15:29;45.09;30.53
75457;SHT31;64036;48.266;14.192;2023-08-21T07:17:55;45.35;29.83
75457;SHT31;64036;48.266;14.192;2023-08-21T07:20:21;45.64;29.32
75457;SHT31;64036;48.266;14.192;2023-08-21T07:22:47;45.75;29.18
75457;SHT31;64036;48.266;14.192;2023-08-21T07:25:13;45.71;28.79
75457;SHT31;64036;48.266;14.192;2023-08-21T07:27:38;45.29;28.85
75457;SHT31;64036;48.266;14.192;2023-08-21T07:30:05;45.35;28.81
75457;SHT31;64036;48.266;14.192;2023-08-21T07:32:32;45.55;28.69
75457;SHT31;64036;48.266;14.192;2023-08-21T07:34:57;45.77;28.86
75457;SHT31;64036;48.266;14.192;2023-08-21T07:37:23;45.77;28.26
75457;SHT31;64036;48.266;14.192;2023-08-21T07:39:48;45.81;28.31
75457;SHT31;64036;48.266;14.192;2023-08-21T07:42:14;46.01;28.59
75457;SHT31;64036;48.266;14.192;2023-08-21T07:44:40;46.05;28.15
75457;SHT31;64036;48.266;14.192;2023-08-21T07:47:05;46.01;27.95
75457;SHT31;64036;48.266;14.192;2023-08-21T07:49:32;46.07;28.03
75457;SHT31;64036;48.266;14.192;2023-08-21T07:51:58;45.98;27.81
75457;SHT31;64036;48.266;14.192;2023-08-21T07:54:24;46.16;27.86
75457;SHT31;64036;48.266;14.192;2023-08-21T07:56:50;46.01;27.93
75457;SHT31;64036;48.266;14.192;2023-08-21T07:59:16;45.92;28.53
75457;SHT31;64036;48.266;14.192;2023-08-21T08:01:42;46.07;28.85
75457;SHT31;64036;48.266;14.192;2023-08-21T08:04:10;46.15;28.10
75457;SHT31;64036;48.266;14.192;2023-08-21T08:06:39;45.71;28.15
75457;SHT31;64036;48.266;14.192;2023-08-21T08:09:04;45.44;28.76
75457;SHT31;64036;48.266;14.192;2023-08-21T08:11:30;45.53;28.47
75457;SHT31;64036;48.266;14.192;2023-08-21T08:13:56;45.63;28.38
75457;SHT31;64036;48.266;14.192;2023-08-21T08:16:21;45.78;28.55
75457;SHT31;64036;48.266;14.192;2023-08-21T08:18:47;45.81;28.74
75457;SHT31;64036;48.266;14.192;2023-08-21T08:21:13;45.77;28.85
75457;SHT31;64036;48.266;14.192;2023-08-21T08:23:39;45.63;28.78
75457;SHT31;64036;48.266;14.192;2023-08-21T08:26:05;45.51;28.59
75457;SHT31;64036;48.266;14.192;2023-08-21T08:28:30;45.47;28.83
75457;SHT31;64036;48.266;14.192;2023-08-21T08:30:56;45.47;27.85
75457;SHT31;64036;48.266;14.192;2023-08-21T08:33:25;45.49;28.40
75457;SHT31;64036;48.266;14.192;2023-08-21T08:35:55;45.51;28.54
75457;SHT31;64036;48.266;14.192;2023-08-21T08:38:20;45.53;28.65
75457;SHT31;64036;48.266;14.192;2023-08-21T08:40:46;45.65;28.77
75457;SHT31;64036;48.266;14.192;2023-08-21T08:43:13;45.90;28.56
75457;SHT31;64036;48.266;14.192;2023-08-21T08:45:40;45.94;28.72
75457;SHT31;64036;48.266;14.192;2023-08-21T08:48:09;46.14;28.61
75457;SHT31;64036;48.266;14.192;2023-08-21T08:50:35;46.20;28.18
75457;SHT31;64036;48.266;14.192;2023-08-21T08:53:03;46.13;28.08
75457;SHT31;64036;48.266;14.192;2023-08-21T08:55:29;46.11;29.03
75457;SHT31;64036;48.266;14.192;2023-08-21T08:57:55;45.84;29.20
75457;SHT31;64036;48.266;14.192;2023-08-21T09:00:21;45.70;30.30
75457;SHT31;64036;48.266;14.192;2023-08-21T09:02:47;45.76;30.46
75457;SHT31;64036;48.266;14.192;2023-08-21T09:05:13;45.70;29.45
75457;SHT31;64036;48.266;14.192;2023-08-21T09:07:39;45.56;29.99
75457;SHT31;64036;48.266;14.192;2023-08-21T09:10:11;45.62;30.14
75457;SHT31;64036;48.266;14.192;2023-08-21T09:12:40;45.55;29.37
75457;SHT31;64036;48.266;14.192;2023-08-21T09:15:06;45.23;29.28
75457;SHT31;64036;48.266;14.192;2023-08-21T09:17:33;45.25;29.19
75457;SHT31;64036;48.266;14.192;2023-08-21T09:20:06;45.24;30.19
75457;SHT31;64036;48.266;14.192;2023-08-21T09:22:35;45.21;30.47
75457;SHT31;64036;48.266;14.192;2023-08-21T09:27:38;44.84;31.81
75457;SHT31;64036;48.266;14.192;2023-08-21T09:30:06;44.45;31.55
75457;SHT31;64036;48.266;14.192;2023-08-21T09:32:54;44.33;31.72
75457;SHT31;64036;48.266;14.192;2023-08-21T09:35:25;44.33;32.04
75457;SHT31;64036;48.266;14.192;2023-08-21T09:37:52;44.21;32.71
75457;SHT31;64036;48.266;14.192;2023-08-21T09:40:18;44.04;31.94
75457;SHT31;64036;48.266;14.192;2023-08-21T09:42:48;43.84;32.47
75457;SHT31;64036;48.266;14.192;2023-08-21T09:45:22;43.81;32.23
75457;SHT31;64036;48.266;14.192;2023-08-21T09:47:52;43.61;31.99
75457;SHT31;64036;48.266;14.192;2023-08-21T09:50:18;43.33;33.03
75457;SHT31;64036;48.266;14.192;2023-08-21T09:52:44;43.08;32.98
75457;SHT31;64036;48.266;14.192;2023-08-21T09:55:12;43.19;33.62
75457;SHT31;64036;48.266;14.192;2023-08-21T09:57:40;43.45;34.55
75457;SHT31;64036;48.266;14.192;2023-08-21T10:00:08;43.52;33.77
75457;SHT31;64036;48.266;14.192;2023-08-21T10:02:45;43.51;33.23
75457;SHT31;64036;48.266;14.192;2023-08-21T10:05:18;43.31;32.43
75457;SHT31;64036;48.266;14.192;2023-08-21T10:07:46;43.08;33.78
75457;SHT31;64036;48.266;14.192;2023-08-21T10:10:13;42.93;34.37
75457;SHT31;64036;48.266;14.192;2023-08-21T10:12:39;42.61;34.18
75457;SHT31;64036;48.266;14.192;2023-08-21T10:15:06;42.26;34.41
75457;SHT31;64036;48.266;14.192;2023-08-21T10:17:36;42.10;34.66
75457;SHT31;64036;48.266;14.192;2023-08-21T10:20:05;41.91;34.95
75457;SHT31;64036;48.266;14.192;2023-08-21T10:22:43;41.73;34.94
75457;SHT31;64036;48.266;14.192;2023-08-21T10:25:14;41.61;35.61
75457;SHT31;64036;48.266;14.192;2023-08-21T10:27:57;41.63;34.79
75457;SHT31;64036;48.266;14.192;2023-08-21T10:30:29;41.36;35.72
75457;SHT31;64036;48.266;14.192;2023-08-21T10:32:57;41.19;35.83
75457;SHT31;64036;48.266;14.192;2023-08-21T10:35:28;40.97;35.29
75457;SHT31;64036;48.266;14.192;2023-08-21T10:38:05;40.75;35.60
75457;SHT31;64036;48.266;14.192;2023-08-21T10:43:45;40.34;36.25
75457;SHT31;64036;48.266;14.192;2023-08-21T10:46:11;40.24;36.52
75457;SHT31;64036;48.266;14.192;2023-08-21T10:48:38;40.04;36.80
75457;SHT31;64036;48.266;14.192;2023-08-21T10:51:06;39.68;37.33
75457;SHT31;64036;48.266;14.192;2023-08-21T10:53:34;39.65;37.05
75457;SHT31;64036;48.266;14.192;2023-08-21T10:56:04;39.58;37.12
75457;SHT31;64036;48.266;14.192;2023-08-21T10:58:43;39.50;38.28
75457;SHT31;64036;48.266;14.192;2023-08-21T11:01:16;39.37;38.11
75457;SHT31;64036;48.266;14.192;2023-08-21T11:03:46;39.26;39.57
75457;SHT31;64036;48.266;14.192;2023-08-21T11:06:12;39.08;40.10
75457;SHT31;64036;48.266;14.192;2023-08-21T11:08:37;39.05;39.04
75457;SHT31;64036;48.266;14.192;2023-08-21T11:11:05;39.24;38.67
75457;SHT31;64036;48.266;14.192;2023-08-21T11:13:31;39.27;38.68
75457;SHT31;64036;48.266;14.192;2023-08-21T11:16:01;39.15;39.36
75457;SHT31;64036;48.266;14.192;2023-08-21T11:18:30;39.08;38.76
75457;SHT31;64036;48.266;14.192;2023-08-21T11:21:09;39.03;38.56
75457;SHT31;64036;48.266;14.192;2023-08-21T11:23:40;38.88;38.16
75457;SHT31;64036;48.266;14.192;2023-08-21T11:26:10;38.88;38.14
75457;SHT31;64036;48.266;14.192;2023-08-21T11:28:37;38.95;38.84
75457;SHT31;64036;48.266;14.192;2023-08-21T11:31:04;38.99;39.49
75457;SHT31;64036;48.266;14.192;2023-08-21T11:33:31;38.94;39.31
75457;SHT31;64036;48.266;14.192;2023-08-21T11:35:58;38.85;39.02
75457;SHT31;64036;48.266;14.192;2023-08-21T11:38:25;38.88;38.27
75457;SHT31;64036;48.266;14.192;2023-08-21T11:43:17;39.06;38.12
75457;SHT31;64036;48.266;14.192;2023-08-21T11:45:47;38.98;36.61
75457;SHT31;64036;48.266;14.192;2023-08-21T11:48:13;38.87;37.18
75457;SHT31;64036;48.266;14.192;2023-08-21T11:50:39;38.74;37.16
75457;SHT31;64036;48.266;14.192;2023-08-21T11:53:05;38.67;36.99
75457;SHT31;64036;48.266;14.192;2023-08-21T11:55:34;38.50;37.87
75457;SHT31;64036;48.266;14.192;2023-08-21T11:57:59;38.50;39.13
75457;SHT31;64036;48.266;14.192;2023-08-21T12:00:28;38.75;37.96
75457;SHT31;64036;48.266;14.192;2023-08-21T12:02:55;38.91;37.78
75457;SHT31;64036;48.266;14.192;2023-08-21T12:05:23;38.92;36.94
75457;SHT31;64036;48.266;14.192;2023-08-21T12:07:51;39.01;38.05
75457;SHT31;64036;48.266;14.192;2023-08-21T12:12:51;39.13;36.47
75457;SHT31;64036;48.266;14.192;2023-08-21T12:15:17;39.11;36.12
75457;SHT31;64036;48.266;14.192;2023-08-21T12:17:43;39.14;36.57
75457;SHT31;64036;48.266;14.192;2023-08-21T12:20:08;39.08;36.06
75457;SHT31;64036;48.266;14.192;2023-08-21T12:22:37;39.20;37.47
75457;SHT31;64036;48.266;14.192;2023-08-21T12:25:04;39.30;37.06
75457;SHT31;64036;48.266;14.192;2023-08-21T12:27:31;39.22;36.93
75457;SHT31;64036;48.266;14.192;2023-08-21T12:29:57;39.08;36.70
75457;SHT31;64036;48.266;14.192;2023-08-21T12:32:22;38.98;37.59
75457;SHT31;64036;48.266;14.192;2023-08-21T12:34:48;38.91;37.18
75457;SHT31;64036;48.266;14.192;2023-08-21T12:37:14;38.84;36.80
75457;SHT31;64036;48.266;14.192;2023-08-21T12:39:39;38.65;37.02
75457;SHT31;64036;48.266;14.192;2023-08-21T12:42:05;38.39;36.95
75457;SHT31;64036;48.266;14.192;2023-08-21T12:44:33;38.33;36.94
75457;SHT31;64036;48.266;14.192;2023-08-21T12:46:59;38.34;38.01
75457;SHT31;64036;48.266;14.192;2023-08-21T12:49:25;38.32;37.63
75457;SHT31;64036;48.266;14.192;2023-08-21T12:51:51;38.25;36.46
75457;SHT31;64036;48.266;14.192;2023-08-21T12:54:16;38.13;37.76
75457;SHT31;64036;48.266;14.192;2023-08-21T12:56:42;38.13;38.59
75457;SHT31;64036;48.266;14.192;2023-08-21T12:59:08;38.23;36.86
75457;SHT31;64036;48.266;14.192;2023-08-21T13:01:33;38.19;37.07
75457;SHT31;64036;48.266;14.192;2023-08-21T13:04:01;38.19;38.13
75457;SHT31;64036;48.266;14.192;2023-08-21T13:06:28;38.15;38.92
75457;SHT31;64036;48.266;14.192;2023-08-21T13:08:53;38.06;37.92
75457;SHT31;64036;48.266;14.192;2023-08-21T13:11:19;38.04;36.49
75457;SHT31;64036;48.266;14.192;2023-08-21T13:13:45;38.02;36.48
75457;SHT31;64036;48.266;14.192;2023-08-21T13:16:10;37.95;37.01
75457;SHT31;64036;48.266;14.192;2023-08-21T13:18:36;37.84;38.34
75457;SHT31;64036;48.266;14.192;2023-08-21T13:21:02;37.78;39.01
75457;SHT31;64036;48.266;14.192;2023-08-21T13:23:28;37.72;38.84
75457;SHT31;64036;48.266;14.192;2023-08-21T13:25:55;37.79;37.50
75457;SHT31;64036;48.266;14.192;2023-08-21T13:28:25;37.81;36.93
75457;SHT31;64036;48.266;14.192;2023-08-21T13:30:50;37.79;37.63
75457;SHT31;64036;48.266;14.192;2023-08-21T13:33:18;37.92;35.96
75457;SHT31;64036;48.266;14.192;2023-08-21T13:35:46;37.81;36.72
75457;SHT31;64036;48.266;14.192;2023-08-21T13:38:12;37.60;38.00
75457;SHT31;64036;48.266;14.192;2023-08-21T13:40:39;37.62;38.74
75457;SHT31;64036;48.266;14.192;2023-08-21T13:43:06;37.61;39.45
75457;SHT31;64036;48.266;14.192;2023-08-21T13:45:32;37.47;37.64
75457;SHT31;64036;48.266;14.192;2023-08-21T13:47:58;37.33;38.18
75457;SHT31;64036;48.266;14.192;2023-08-21T13:50:24;37.29;38.20
75457;SHT31;64036;48.266;14.192;2023-08-21T13:52:50;37.21;37.42
75457;SHT31;64036;48.266;14.192;2023-08-21T13:55:16;37.03;38.27
75457;SHT31;64036;48.266;14.192;2023-08-21T13:57:42;36.88;39.75
75457;SHT31;64036;48.266;14.192;2023-08-21T14:00:09;36.83;40.86
75457;SHT31;64036;48.266;14.192;2023-08-21T14:02:39;36.79;40.23
75457;SHT31;64036;48.266;14.192;2023-08-21T14:05:06;36.72;40.33
75457;SHT31;64036;48.266;14.192;2023-08-21T14:07:33;36.63;41.56
75457;SHT31;64036;48.266;14.192;2023-08-21T14:10:00;36.46;39.63
75457;SHT31;64036;48.266;14.192;2023-08-21T14:12:27;36.35;38.99
75457;SHT31;64036;48.266;14.192;2023-08-21T14:14:55;36.27;39.42
75457;SHT31;64036;48.266;14.192;2023-08-21T14:17:21;36.22;38.26
75457;SHT31;64036;48.266;14.192;2023-08-21T14:19:46;36.16;37.80
75457;SHT31;64036;48.266;14.192;2023-08-21T14:22:12;36.11;38.04
75457;SHT31;64036;48.266;14.192;2023-08-21T14:24:38;36.02;38.41
75457;SHT31;64036;48.266;14.192;2023-08-21T14:27:03;35.94;39.59
75457;SHT31;64036;48.266;14.192;2023-08-21T14:29:29;35.86;40.35
75457;SHT31;64036;48.266;14.192;2023-08-21T14:31:55;35.75;40.47
75457;SHT31;64036;48.266;14.192;2023-08-21T14:34:22;35.64;40.75
75457;SHT31;64036;48.266;14.192;2023-08-21T14:36:48;35.52;40.14
75457;SHT31;64036;48.266;14.192;2023-08-21T14:39:14;35.44;40.91
75457;SHT31;64036;48.266;14.192;2023-08-21T14:41:41;35.36;40.65
75457;SHT31;64036;48.266;14.192;2023-08-21T14:44:08;35.29;41.10
75457;SHT31;64036;48.266;14.192;2023-08-21T14:46:34;35.23;40.53
75457;SHT31;64036;48.266;14.192;2023-08-21T14:48:59;35.17;40.29
75457;SHT31;64036;48.266;14.192;2023-08-21T14:51:25;35.12;40.76
75457;SHT31;64036;48.266;14.192;2023-08-21T14:53:51;35.01;40.15
75457;SHT31;64036;48.266;14.192;2023-08-21T14:56:17;34.82;40.64
75457;SHT31;64036;48.266;14.192;2023-08-21T14:58:45;34.79;41.37
75457;SHT31;64036;48.266;14.192;2023-08-21T15:01:11;34.72;42.02
75457;SHT31;64036;48.266;14.192;2023-08-21T15:03:37;34.64;40.42
75457;SHT31;64036;48.266;14.192;2023-08-21T15:06:02;34.61;41.04
75457;SHT31;64036;48.266;14.192;2023-08-21T15:08:28;34.58;40.66
75457;SHT31;64036;48.266;14.192;2023-08-21T15:10:54;34.55;39.62
75457;SHT31;64036;48.266;14.192;2023-08-21T15:13:20;34.51;40.40
75457;SHT31;64036;48.266;14.192;2023-08-21T15:15:45;34.43;40.38
75457;SHT31;64036;48.266;14.192;2023-08-21T15:18:11;34.33;40.36
75457;SHT31;64036;48.266;14.192;2023-08-21T15:20:37;34.23;42.45
75457;SHT31;64036;48.266;14.192;2023-08-21T15:23:03;34.17;41.69
75457;SHT31;64036;48.266;14.192;2023-08-21T15:25:28;34.15;42.35
75457;SHT31;64036;48.266;14.192;2023-08-21T15:27:54;34.09;42.02
75457;SHT31;64036;48.266;14.192;2023-08-21T15:30:20;34.05;41.83